sensor_id;sensor_type;location;lat;lon;timestamp;P1;durP1;ratioP1;P2;durP2;ratioP2
71648;SDS011;70112;45.624;11.760;2024-02-15T00:01:01;58.00;;;42.70;;
71648;SDS011;70112;45.624;11.760;2024-02-15T00:03:26;66.50;;;44.70;;
71648;SDS011;70112;45.624;11.760;2024-02-15T00:06:00;60.60;;;42.70;;
71648;SDS011;70112;45.624;11.760;2024-02-15T00:08:25;66.60;;;41.80;;
71648;SDS011;70112;45.624;11.760;2024-02-15T00:10:52;56.50;;;38.60;;
71648;SDS011;70112;45.624;11.760;2024-02-15T00:13:19;58.90;;;39.20;;
71648;SDS011;70112;45.624;11.760;2024-02-15T00:15:44;56.20;;;38.00;;
71648;SDS011;70112;45.624;11.760;2024-02-15T00:18:13;60.40;;;36.50;;
71648;SDS011;70112;45.624;11.760;2024-02-15T00:20:39;59.50;;;39.20;;
71648;SDS011;70112;45.624;11.760;2024-02-15T00:23:05;56.30;;;39.10;;
71648;SDS011;70112;45.624;11.760;2024-02-15T00:25:34;59.30;;;40.40;;
71648;SDS011;70112;45.624;11.760;2024-02-15T00:28:01;64.50;;;40.60;;
71648;SDS011;70112;45.624;11.760;2024-02-15T00:30:47;65.60;;;40.90;;
71648;SDS011;70112;45.624;11.760;2024-02-15T00:33:16;58.10;;;39.60;;
71648;SDS011;70112;45.624;11.760;2024-02-15T00:35:41;59.40;;;41.40;;
71648;SDS011;70112;45.624;11.760;2024-02-15T00:38:07;63.70;;;40.30;;
71648;SDS011;70112;45.624;11.760;2024-02-15T00:40:33;63.00;;;39.50;;
71648;SDS011;70112;45.624;11.760;2024-02-15T00:42:58;51.50;;;36.40;;
71648;SDS011;70112;45.624;11.760;2024-02-15T00:45:24;61.30;;;37.70;;
71648;SDS011;70112;45.624;11.760;2024-02-15T00:47:50;55.40;;;37.20;;
71648;SDS011;70112;45.624;11.760;2024-02-15T00:50:19;59.50;;;39.00;;
71648;SDS011;70112;45.624;11.760;2024-02-15T00:52:44;62.40;;;39.50;;
71648;SDS011;70112;45.624;11.760;2024-02-15T00:55:10;61.20;;;40.50;;
71648;SDS011;70112;45.624;11.760;2024-02-15T00:57:36;65.30;;;40.80;;
71648;SDS011;70112;45.624;11.760;2024-02-15T01:00:02;63.70;;;41.10;;
71648;SDS011;70112;45.624;11.760;2024-02-15T01:02:31;64.70;;;42.30;;
71648;SDS011;70112;45.624;11.760;2024-02-15T01:04:57;70.60;;;42.20;;
71648;SDS011;70112;45.624;11.760;2024-02-15T01:07:24;61.80;;;41.30;;
71648;SDS011;70112;45.624;11.760;2024-02-15T01:09:53;61.20;;;39.70;;
71648;SDS011;70112;45.624;11.760;2024-02-15T01:12:28;62.50;;;39.10;;
71648;SDS011;70112;45.624;11.760;2024-02-15T01:14:57;62.60;;;39.70;;
71648;SDS011;70112;45.624;11.760;2024-02-15T01:17:23;60.70;;;40.20;;
71648;SDS011;70112;45.624;11.760;2024-02-15T01:19:49;59.50;;;41.80;;
71648;SDS011;70112;45.624;11.760;2024-02-15T01:22:16;72.20;;;43.20;;
71648;SDS011;70112;45.624;11.760;2024-02-15T01:24:42;64.90;;;41.40;;
71648;SDS011;70112;45.624;11.760;2024-02-15T01:27:07;58.00;;;39.40;;
71648;SDS011;70112;45.624;11.760;2024-02-15T01:29:34;53.50;;;37.40;;
71648;SDS011;70112;45.624;11.760;2024-02-15T01:32:00;54.30;;;37.00;;
71648;SDS011;70112;45.624;11.760;2024-02-15T01:34:27;63.50;;;39.80;;
71648;SDS011;70112;45.624;11.760;2024-02-15T01:36:53;73.80;;;41.90;;
71648;SDS011;70112;45.624;11.760;2024-02-15T01:39:19;69.80;;;44.10;;
71648;SDS011;70112;45.624;11.760;2024-02-15T01:41:48;89.10;;;48.60;;
71648;SDS011;70112;45.624;11.760;2024-02-15T01:44:17;78.60;;;43.10;;
71648;SDS011;70112;45.624;11.760;2024-02-15T01:46:45;67.20;;;41.50;;
71648;SDS011;70112;45.624;11.760;2024-02-15T01:49:13;69.90;;;43.20;;
71648;SDS011;70112;45.624;11.760;2024-02-15T01:51:39;65.10;;;42.90;;
71648;SDS011;70112;45.624;11.760;2024-02-15T01:54:09;70.40;;;42.60;;
71648;SDS011;70112;45.624;11.760;2024-02-15T01:56:39;55.90;;;38.00;;
71648;SDS011;70112;45.624;11.760;2024-02-15T01:59:13;59.90;;;37.10;;
71648;SDS011;70112;45.624;11.760;2024-02-15T02:01:40;54.20;;;36.60;;
71648;SDS011;70112;45.624;11.760;2024-02-15T02:04:06;56.50;;;37.10;;
71648;SDS011;70112;45.624;11.760;2024-02-15T02:06:34;56.00;;;37.30;;
71648;SDS011;70112;45.624;11.760;2024-02-15T02:09:03;58.70;;;38.60;;
71648;SDS011;70112;45.624;11.760;2024-02-15T02:11:28;55.90;;;38.30;;
71648;SDS011;70112;45.624;11.760;2024-02-15T02:14:05;61.00;;;37.30;;
71648;SDS011;70112;45.624;11.760;2024-02-15T02:16:41;57.70;;;36.50;;
71648;SDS011;70112;45.624;11.760;2024-02-15T02:19:17;50.80;;;33.40;;
71648;SDS011;70112;45.624;11.760;2024-02-15T02:21:43;47.80;;;30.80;;
71648;SDS011;70112;45.624;11.760;2024-02-15T02:24:14;45.10;;;31.40;;
71648;SDS011;70112;45.624;11.760;2024-02-15T02:26:46;47.60;;;32.00;;
71648;SDS011;70112;45.624;11.760;2024-02-15T02:29:13;52.10;;;34.50;;
71648;SDS011;70112;45.624;11.760;2024-02-15T02:31:40;57.00;;;35.40;;
71648;SDS011;70112;45.624;11.760;2024-02-15T02:34:08;54.20;;;35.50;;
71648;SDS011;70112;45.624;11.760;2024-02-15T02:36:35;52.00;;;34.30;;
71648;SDS011;70112;45.624;11.760;2024-02-15T07:48:35;46.90;;;31.50;;
71648;SDS011;70112;45.624;11.760;2024-02-15T07:51:05;46.60;;;33.90;;
71648;SDS011;70112;45.624;11.760;2024-02-15T07:53:53;46.50;;;32.70;;
71648;SDS011;70112;45.624;11.760;2024-02-15T07:56:19;48.00;;;35.50;;
71648;SDS011;70112;45.624;11.760;2024-02-15T07:59:06;53.80;;;33.60;;
71648;SDS011;70112;45.624;11.760;2024-02-15T08:01:32;50.00;;;36.70;;
71648;SDS011;70112;45.624;11.760;2024-02-15T08:03:58;62.50;;;37.50;;
71648;SDS011;70112;45.624;11.760;2024-02-15T08:07:05;62.70;;;38.40;;
71648;SDS011;70112;45.624;11.760;2024-02-15T08:09:37;66.50;;;40.00;;
71648;SDS011;70112;45.624;11.760;2024-02-15T08:12:03;63.90;;;36.80;;
71648;SDS011;70112;45.624;11.760;2024-02-15T08:14:29;47.80;;;32.20;;
71648;SDS011;70112;45.624;11.760;2024-02-15T08:17:17;49.60;;;33.30;;
71648;SDS011;70112;45.624;11.760;2024-02-15T08:19:42;45.50;;;31.90;;
71648;SDS011;70112;45.624;11.760;2024-02-15T08:22:08;50.00;;;35.00;;
71648;SDS011;70112;45.624;11.760;2024-02-15T08:24:37;46.80;;;33.90;;
71648;SDS011;70112;45.624;11.760;2024-02-15T08:27:06;48.00;;;33.40;;
71648;SDS011;70112;45.624;11.760;2024-02-15T08:29:32;47.00;;;31.40;;
71648;SDS011;70112;45.624;11.760;2024-02-15T08:31:59;59.50;;;34.20;;
71648;SDS011;70112;45.624;11.760;2024-02-15T08:34:28;54.20;;;35.20;;
71648;SDS011;70112;45.624;11.760;2024-02-15T08:37:41;51.00;;;32.50;;
71648;SDS011;70112;45.624;11.760;2024-02-15T08:40:09;55.80;;;35.40;;
71648;SDS011;70112;45.624;11.760;2024-02-15T08:42:45;45.10;;;35.00;;
71648;SDS011;70112;45.624;11.760;2024-02-15T08:45:35;51.80;;;35.80;;
71648;SDS011;70112;45.624;11.760;2024-02-15T08:48:04;50.30;;;35.00;;
71648;SDS011;70112;45.624;11.760;2024-02-15T08:50:33;52.40;;;35.10;;
71648;SDS011;70112;45.624;11.760;2024-02-15T08:52:58;52.20;;;32.20;;
71648;SDS011;70112;45.624;11.760;2024-02-15T08:55:24;45.50;;;32.90;;
71648;SDS011;70112;45.624;11.760;2024-02-15T08:57:52;50.20;;;32.80;;
71648;SDS011;70112;45.624;11.760;2024-02-15T09:00:20;40.20;;;31.30;;
71648;SDS011;70112;45.624;11.760;2024-02-15T09:02:49;48.50;;;31.50;;
71648;SDS011;70112;45.624;11.760;2024-02-15T09:05:18;49.40;;;35.00;;
71648;SDS011;70112;45.624;11.760;2024-02-15T09:07:45;49.70;;;32.40;;
71648;SDS011;70112;45.624;11.760;2024-02-15T09:10:18;39.50;;;32.20;;
71648;SDS011;70112;45.624;11.760;2024-02-15T09:12:47;40.70;;;31.90;;
71648;SDS011;70112;45.624;11.760;2024-02-15T09:15:14;39.40;;;30.20;;
71648;SDS011;70112;45.624;11.760;2024-02-15T09:17:41;38.90;;;29.30;;
71648;SDS011;70112;45.624;11.760;2024-02-15T09:20:10;38.30;;;29.00;;
71648;SDS011;70112;45.624;11.760;2024-02-15T09:22:48;33.40;;;28.40;;
71648;SDS011;70112;45.624;11.760;2024-02-15T09:25:15;33.70;;;26.20;;
71648;SDS011;70112;45.624;11.760;2024-02-15T09:27:44;33.40;;;26.60;;
71648;SDS011;70112;45.624;11.760;2024-02-15T09:30:13;32.80;;;25.70;;
71648;SDS011;70112;45.624;11.760;2024-02-15T09:32:40;30.30;;;25.10;;
71648;SDS011;70112;45.624;11.760;2024-02-15T09:35:06;30.40;;;25.30;;
71648;SDS011;70112;45.624;11.760;2024-02-15T09:37:36;31.30;;;23.20;;
71648;SDS011;70112;45.624;11.760;2024-02-15T09:40:13;29.30;;;23.30;;
71648;SDS011;70112;45.624;11.760;2024-02-15T09:42:41;32.80;;;24.50;;
71648;SDS011;70112;45.624;11.760;2024-02-15T09:45:08;30.10;;;23.90;;
71648;SDS011;70112;45.624;11.760;2024-02-15T09:47:44;32.70;;;24.30;;
71648;SDS011;70112;45.624;11.760;2024-02-15T09:50:14;29.50;;;23.50;;
71648;SDS011;70112;45.624;11.760;2024-02-15T09:52:49;29.60;;;22.90;;
71648;SDS011;70112;45.624;11.760;2024-02-15T09:55:16;36.50;;;23.00;;
71648;SDS011;70112;45.624;11.760;2024-02-15T09:57:43;34.30;;;23.70;;
71648;SDS011;70112;45.624;11.760;2024-02-15T10:00:14;29.80;;;22.30;;
71648;SDS011;70112;45.624;11.760;2024-02-15T10:02:43;28.50;;;22.50;;
71648;SDS011;70112;45.624;11.760;2024-02-15T10:05:11;34.50;;;24.00;;
71648;SDS011;70112;45.624;11.760;2024-02-15T10:07:42;27.10;;;23.10;;
71648;SDS011;70112;45.624;11.760;2024-02-15T10:10:21;33.10;;;25.90;;
71648;SDS011;70112;45.624;11.760;2024-02-15T10:12:50;36.10;;;25.40;;
71648;SDS011;70112;45.624;11.760;2024-02-15T10:20:42;33.80;;;25.80;;
71648;SDS011;70112;45.624;11.760;2024-02-15T10:25:39;34.20;;;23.70;;
71648;SDS011;70112;45.624;11.760;2024-02-15T10:30:37;34.20;;;23.70;;
71648;SDS011;70112;45.624;11.760;2024-02-15T10:33:26;31.70;;;23.00;;
71648;SDS011;70112;45.624;11.760;2024-02-15T10:36:08;40.10;;;23.60;;
71648;SDS011;70112;45.624;11.760;2024-02-15T10:38:37;37.00;;;24.20;;
71648;SDS011;70112;45.624;11.760;2024-02-15T10:41:08;34.70;;;23.10;;
71648;SDS011;70112;45.624;11.760;2024-02-15T10:43:36;33.10;;;22.40;;
71648;SDS011;70112;45.624;11.760;2024-02-15T10:46:04;34.70;;;23.80;;
71648;SDS011;70112;45.624;11.760;2024-02-15T10:48:33;36.90;;;27.00;;
71648;SDS011;70112;45.624;11.760;2024-02-15T10:51:03;34.20;;;25.30;;
71648;SDS011;70112;45.624;11.760;2024-02-15T10:53:30;36.60;;;22.60;;
71648;SDS011;70112;45.624;11.760;2024-02-15T10:56:18;33.50;;;25.00;;
71648;SDS011;70112;45.624;11.760;2024-02-15T10:59:04;34.30;;;23.20;;
71648;SDS011;70112;45.624;11.760;2024-02-15T11:01:40;35.10;;;21.10;;
71648;SDS011;70112;45.624;11.760;2024-02-15T11:04:12;33.10;;;21.70;;
71648;SDS011;70112;45.624;11.760;2024-02-15T11:06:42;34.40;;;20.20;;
71648;SDS011;70112;45.624;11.760;2024-02-15T11:09:10;28.40;;;20.50;;
71648;SDS011;70112;45.624;11.760;2024-02-15T11:11:41;31.70;;;23.10;;
71648;SDS011;70112;45.624;11.760;2024-02-15T11:14:26;32.10;;;21.40;;
71648;SDS011;70112;45.624;11.760;2024-02-15T11:16:57;26.90;;;20.40;;
71648;SDS011;70112;45.624;11.760;2024-02-15T11:22:00;27.90;;;22.30;;
71648;SDS011;70112;45.624;11.760;2024-02-15T11:24:30;35.60;;;24.10;;
71648;SDS011;70112;45.624;11.760;2024-02-15T11:27:02;36.80;;;26.00;;
71648;SDS011;70112;45.624;11.760;2024-02-15T11:29:48;33.90;;;24.90;;
71648;SDS011;70112;45.624;11.760;2024-02-15T11:32:38;36.60;;;24.90;;
71648;SDS011;70112;45.624;11.760;2024-02-15T11:35:12;36.70;;;25.90;;
71648;SDS011;70112;45.624;11.760;2024-02-15T11:40:18;34.20;;;25.60;;
71648;SDS011;70112;45.624;11.760;2024-02-15T11:42:59;33.50;;;25.40;;
71648;SDS011;70112;45.624;11.760;2024-02-15T11:45:29;37.00;;;27.70;;
71648;SDS011;70112;45.624;11.760;2024-02-15T11:48:02;38.50;;;29.30;;
71648;SDS011;70112;45.624;11.760;2024-02-15T11:50:34;42.40;;;31.00;;
71648;SDS011;70112;45.624;11.760;2024-02-15T11:53:05;40.10;;;30.30;;
71648;SDS011;70112;45.624;11.760;2024-02-15T11:55:34;43.60;;;32.50;;
71648;SDS011;70112;45.624;11.760;2024-02-15T11:58:02;41.80;;;30.90;;
71648;SDS011;70112;45.624;11.760;2024-02-15T12:00:48;44.70;;;32.10;;
71648;SDS011;70112;45.624;11.760;2024-02-15T12:03:32;43.30;;;29.90;;
71648;SDS011;70112;45.624;11.760;2024-02-15T12:06:17;40.90;;;28.40;;
71648;SDS011;70112;45.624;11.760;2024-02-15T12:09:02;44.20;;;31.50;;
71648;SDS011;70112;45.624;11.760;2024-02-15T12:11:46;44.30;;;30.50;;
71648;SDS011;70112;45.624;11.760;2024-02-15T12:14:30;42.50;;;29.40;;
71648;SDS011;70112;45.624;11.760;2024-02-15T12:17:14;51.20;;;31.50;;
71648;SDS011;70112;45.624;11.760;2024-02-15T12:20:03;42.60;;;30.30;;
71648;SDS011;70112;45.624;11.760;2024-02-15T12:22:41;41.10;;;30.40;;
71648;SDS011;70112;45.624;11.760;2024-02-15T12:25:14;43.90;;;32.20;;
71648;SDS011;70112;45.624;11.760;2024-02-15T12:27:42;42.40;;;31.00;;
71648;SDS011;70112;45.624;11.760;2024-02-15T12:30:16;46.20;;;33.20;;
71648;SDS011;70112;45.624;11.760;2024-02-15T12:32:51;45.10;;;33.10;;
71648;SDS011;70112;45.624;11.760;2024-02-15T12:35:19;43.50;;;33.90;;
71648;SDS011;70112;45.624;11.760;2024-02-15T12:37:46;54.10;;;35.80;;
71648;SDS011;70112;45.624;11.760;2024-02-15T12:40:21;49.00;;;34.60;;
71648;SDS011;70112;45.624;11.760;2024-02-15T12:42:48;50.00;;;35.80;;
71648;SDS011;70112;45.624;11.760;2024-02-15T12:45:17;48.60;;;36.00;;
71648;SDS011;70112;45.624;11.760;2024-02-15T12:47:56;51.90;;;35.60;;
71648;SDS011;70112;45.624;11.760;2024-02-15T12:50:26;58.10;;;39.30;;
71648;SDS011;70112;45.624;11.760;2024-02-15T12:52:53;50.00;;;37.10;;
71648;SDS011;70112;45.624;11.760;2024-02-15T12:55:22;54.00;;;37.50;;
71648;SDS011;70112;45.624;11.760;2024-02-15T12:57:52;53.00;;;38.10;;
71648;SDS011;70112;45.624;11.760;2024-02-15T13:00:23;51.40;;;37.60;;
71648;SDS011;70112;45.624;11.760;2024-02-15T13:02:54;56.90;;;38.80;;
71648;SDS011;70112;45.624;11.760;2024-02-15T13:05:21;55.10;;;38.70;;
71648;SDS011;70112;45.624;11.760;2024-02-15T13:07:49;51.70;;;37.70;;
71648;SDS011;70112;45.624;11.760;2024-02-15T13:10:15;58.00;;;40.10;;
71648;SDS011;70112;45.624;11.760;2024-02-15T13:12:42;51.80;;;40.50;;
71648;SDS011;70112;45.624;11.760;2024-02-15T13:15:15;57.50;;;41.60;;
71648;SDS011;70112;45.624;11.760;2024-02-15T13:17:47;61.10;;;40.10;;
71648;SDS011;70112;45.624;11.760;2024-02-15T13:20:17;59.90;;;41.90;;
71648;SDS011;70112;45.624;11.760;2024-02-15T13:22:46;53.90;;;40.40;;
71648;SDS011;70112;45.624;11.760;2024-02-15T13:25:15;56.10;;;40.60;;
71648;SDS011;70112;45.624;11.760;2024-02-15T13:27:46;53.50;;;40.00;;
71648;SDS011;70112;45.624;11.760;2024-02-15T13:30:13;55.50;;;40.90;;
71648;SDS011;70112;45.624;11.760;2024-02-15T13:32:40;58.90;;;41.90;;
71648;SDS011;70112;45.624;11.760;2024-02-15T13:35:09;57.10;;;42.00;;
71648;SDS011;70112;45.624;11.760;2024-02-15T13:37:46;58.10;;;42.30;;
71648;SDS011;70112;45.624;11.760;2024-02-15T13:40:13;59.80;;;44.40;;
71648;SDS011;70112;45.624;11.760;2024-02-15T13:42:46;65.10;;;44.00;;
71648;SDS011;70112;45.624;11.760;2024-02-15T13:48:05;58.80;;;42.30;;
71648;SDS011;70112;45.624;11.760;2024-02-15T13:50:32;64.40;;;45.10;;
71648;SDS011;70112;45.624;11.760;2024-02-15T13:52:58;58.90;;;43.30;;
71648;SDS011;70112;45.624;11.760;2024-02-15T13:55:25;59.10;;;45.90;;
71648;SDS011;70112;45.624;11.760;2024-02-15T13:57:55;59.90;;;44.40;;
71648;SDS011;70112;45.624;11.760;2024-02-15T14:00:22;60.00;;;44.70;;
71648;SDS011;70112;45.624;11.760;2024-02-15T14:02:51;58.10;;;44.70;;
71648;SDS011;70112;45.624;11.760;2024-02-15T14:05:18;65.30;;;46.90;;
71648;SDS011;70112;45.624;11.760;2024-02-15T14:07:50;62.60;;;46.70;;
71648;SDS011;70112;45.624;11.760;2024-02-15T14:10:18;56.40;;;43.90;;
71648;SDS011;70112;45.624;11.760;2024-02-15T14:12:47;55.90;;;42.50;;
71648;SDS011;70112;45.624;11.760;2024-02-15T14:15:16;56.10;;;44.20;;
71648;SDS011;70112;45.624;11.760;2024-02-15T14:17:43;56.10;;;42.90;;
71648;SDS011;70112;45.624;11.760;2024-02-15T14:20:12;58.70;;;45.00;;
71648;SDS011;70112;45.624;11.760;2024-02-15T14:22:45;74.60;;;45.90;;
71648;SDS011;70112;45.624;11.760;2024-02-15T14:25:14;60.60;;;46.20;;
71648;SDS011;70112;45.624;11.760;2024-02-15T14:27:40;59.90;;;45.80;;
71648;SDS011;70112;45.624;11.760;2024-02-15T14:30:08;56.80;;;45.90;;
71648;SDS011;70112;45.624;11.760;2024-02-15T14:32:52;59.90;;;44.40;;
71648;SDS011;70112;45.624;11.760;2024-02-15T14:35:36;62.30;;;46.50;;
71648;SDS011;70112;45.624;11.760;2024-02-15T14:38:07;61.60;;;44.90;;
71648;SDS011;70112;45.624;11.760;2024-02-15T14:40:38;61.10;;;45.90;;
71648;SDS011;70112;45.624;11.760;2024-02-15T14:43:11;63.20;;;46.60;;
71648;SDS011;70112;45.624;11.760;2024-02-15T14:45:38;58.80;;;46.00;;
71648;SDS011;70112;45.624;11.760;2024-02-15T14:48:08;63.70;;;47.00;;
71648;SDS011;70112;45.624;11.760;2024-02-15T14:50:40;62.20;;;46.80;;
71648;SDS011;70112;45.624;11.760;2024-02-15T14:53:06;68.90;;;46.00;;
71648;SDS011;70112;45.624;11.760;2024-02-15T14:55:35;61.60;;;46.60;;
71648;SDS011;70112;45.624;11.760;2024-02-15T14:58:05;65.40;;;47.50;;
71648;SDS011;70112;45.624;11.760;2024-02-15T15:00:33;68.90;;;47.80;;
71648;SDS011;70112;45.624;11.760;2024-02-15T15:02:59;63.00;;;47.40;;
71648;SDS011;70112;45.624;11.760;2024-02-15T15:05:25;62.70;;;47.40;;
71648;SDS011;70112;45.624;11.760;2024-02-15T15:08:09;62.20;;;46.40;;
71648;SDS011;70112;45.624;11.760;2024-02-15T15:10:55;58.90;;;44.80;;
71648;SDS011;70112;45.624;11.760;2024-02-15T15:13:39;58.10;;;44.20;;
71648;SDS011;70112;45.624;11.760;2024-02-15T15:16:05;67.00;;;47.80;;
71648;SDS011;70112;45.624;11.760;2024-02-15T15:18:32;71.70;;;48.50;;
71648;SDS011;70112;45.624;11.760;2024-02-15T15:20:59;62.90;;;45.60;;
71648;SDS011;70112;45.624;11.760;2024-02-15T15:23:28;68.20;;;47.70;;
71648;SDS011;70112;45.624;11.760;2024-02-15T15:25:59;66.00;;;49.00;;
71648;SDS011;70112;45.624;11.760;2024-02-15T15:28:26;70.00;;;48.20;;
71648;SDS011;70112;45.624;11.760;2024-02-15T15:30:53;61.10;;;47.30;;
71648;SDS011;70112;45.624;11.760;2024-02-15T15:33:18;62.10;;;47.20;;
71648;SDS011;70112;45.624;11.760;2024-02-15T15:35:44;69.60;;;49.30;;
71648;SDS011;70112;45.624;11.760;2024-02-15T15:38:10;67.40;;;50.20;;
71648;SDS011;70112;45.624;11.760;2024-02-15T15:40:36;67.70;;;50.40;;
71648;SDS011;70112;45.624;11.760;2024-02-15T15:43:02;69.70;;;49.60;;
71648;SDS011;70112;45.624;11.760;2024-02-15T15:45:28;70.00;;;49.90;;
71648;SDS011;70112;45.624;11.760;2024-02-15T15:47:54;64.00;;;49.80;;
71648;SDS011;70112;45.624;11.760;2024-02-15T15:50:20;64.50;;;49.40;;
71648;SDS011;70112;45.624;11.760;2024-02-15T15:52:46;70.00;;;48.80;;
71648;SDS011;70112;45.624;11.760;2024-02-15T15:55:13;67.60;;;49.80;;
71648;SDS011;70112;45.624;11.760;2024-02-15T15:57:40;69.70;;;49.60;;
71648;SDS011;70112;45.624;11.760;2024-02-15T16:00:19;68.00;;;50.00;;
71648;SDS011;70112;45.624;11.760;2024-02-15T16:02:45;66.90;;;48.20;;
71648;SDS011;70112;45.624;11.760;2024-02-15T16:05:14;63.90;;;48.30;;
71648;SDS011;70112;45.624;11.760;2024-02-15T16:07:44;71.50;;;49.60;;
71648;SDS011;70112;45.624;11.760;2024-02-15T16:10:10;66.60;;;50.50;;
71648;SDS011;70112;45.624;11.760;2024-02-15T16:12:40;108.00;;;51.90;;
71648;SDS011;70112;45.624;11.760;2024-02-15T16:15:11;96.70;;;51.60;;
71648;SDS011;70112;45.624;11.760;2024-02-15T16:17:39;85.20;;;51.90;;
71648;SDS011;70112;45.624;11.760;2024-02-15T16:20:08;73.60;;;50.90;;
71648;SDS011;70112;45.624;11.760;2024-02-15T16:22:37;70.10;;;51.90;;
71648;SDS011;70112;45.624;11.760;2024-02-15T16:25:05;72.50;;;53.20;;
71648;SDS011;70112;45.624;11.760;2024-02-15T16:27:41;78.70;;;52.20;;
71648;SDS011;70112;45.624;11.760;2024-02-15T16:30:10;68.10;;;50.30;;
71648;SDS011;70112;45.624;11.760;2024-02-15T16:32:37;67.20;;;49.30;;
71648;SDS011;70112;45.624;11.760;2024-02-15T16:35:03;75.60;;;51.40;;
71648;SDS011;70112;45.624;11.760;2024-02-15T16:37:36;70.40;;;49.90;;
71648;SDS011;70112;45.624;11.760;2024-02-15T16:40:03;72.70;;;51.00;;
71648;SDS011;70112;45.624;11.760;2024-02-15T16:42:32;70.80;;;49.80;;
71648;SDS011;70112;45.624;11.760;2024-02-15T16:44:58;63.20;;;46.20;;
71648;SDS011;70112;45.624;11.760;2024-02-15T16:47:24;67.70;;;48.90;;
71648;SDS011;70112;45.624;11.760;2024-02-15T16:49:50;70.20;;;49.80;;
71648;SDS011;70112;45.624;11.760;2024-02-15T16:52:15;71.60;;;50.80;;
71648;SDS011;70112;45.624;11.760;2024-02-15T16:54:41;73.30;;;50.80;;
71648;SDS011;70112;45.624;11.760;2024-02-15T16:57:08;67.80;;;51.10;;
71648;SDS011;70112;45.624;11.760;2024-02-15T16:59:34;70.20;;;52.90;;
71648;SDS011;70112;45.624;11.760;2024-02-15T17:02:00;70.20;;;50.90;;
71648;SDS011;70112;45.624;11.760;2024-02-15T17:04:28;75.70;;;53.10;;
71648;SDS011;70112;45.624;11.760;2024-02-15T17:06:54;74.80;;;53.00;;
71648;SDS011;70112;45.624;11.760;2024-02-15T17:09:20;78.20;;;52.30;;
71648;SDS011;70112;45.624;11.760;2024-02-15T17:11:47;73.60;;;51.70;;
71648;SDS011;70112;45.624;11.760;2024-02-15T17:14:14;73.30;;;51.70;;
71648;SDS011;70112;45.624;11.760;2024-02-15T17:16:40;74.80;;;52.40;;
71648;SDS011;70112;45.624;11.760;2024-02-15T17:19:09;73.20;;;49.60;;
71648;SDS011;70112;45.624;11.760;2024-02-15T17:21:39;75.20;;;50.70;;
71648;SDS011;70112;45.624;11.760;2024-02-15T17:24:06;74.50;;;51.20;;
71648;SDS011;70112;45.624;11.760;2024-02-15T17:26:36;76.20;;;51.70;;
71648;SDS011;70112;45.624;11.760;2024-02-15T17:29:02;80.30;;;52.10;;
71648;SDS011;70112;45.624;11.760;2024-02-15T17:31:33;116.80;;;61.70;;
71648;SDS011;70112;45.624;11.760;2024-02-15T17:33:58;184.40;;;77.60;;
71648;SDS011;70112;45.624;11.760;2024-02-15T17:36:24;163.10;;;74.20;;
71648;SDS011;70112;45.624;11.760;2024-02-15T17:38:50;112.40;;;61.40;;
71648;SDS011;70112;45.624;11.760;2024-02-15T17:41:15;132.40;;;62.90;;
71648;SDS011;70112;45.624;11.760;2024-02-15T17:43:41;125.90;;;63.40;;
71648;SDS011;70112;45.624;11.760;2024-02-15T17:46:07;117.50;;;61.10;;
71648;SDS011;70112;45.624;11.760;2024-02-15T17:48:33;123.40;;;64.00;;
71648;SDS011;70112;45.624;11.760;2024-02-15T17:50:59;143.70;;;68.70;;
71648;SDS011;70112;45.624;11.760;2024-02-15T17:53:24;124.90;;;66.00;;
71648;SDS011;70112;45.624;11.760;2024-02-15T17:55:51;125.00;;;66.20;;
71648;SDS011;70112;45.624;11.760;2024-02-15T17:58:18;110.10;;;62.00;;
71648;SDS011;70112;45.624;11.760;2024-02-15T18:00:44;122.00;;;63.20;;
71648;SDS011;70112;45.624;11.760;2024-02-15T18:03:10;122.00;;;62.90;;
71648;SDS011;70112;45.624;11.760;2024-02-15T18:05:37;121.90;;;65.40;;
71648;SDS011;70112;45.624;11.760;2024-02-15T18:08:04;109.80;;;61.90;;
71648;SDS011;70112;45.624;11.760;2024-02-15T18:10:30;109.90;;;60.10;;
71648;SDS011;70112;45.624;11.760;2024-02-15T18:12:56;109.30;;;62.40;;
71648;SDS011;70112;45.624;11.760;2024-02-15T18:15:22;112.20;;;62.40;;
71648;SDS011;70112;45.624;11.760;2024-02-15T18:17:54;115.20;;;66.70;;
71648;SDS011;70112;45.624;11.760;2024-02-15T18:20:20;109.40;;;63.00;;
71648;SDS011;70112;45.624;11.760;2024-02-15T18:22:48;103.00;;;63.80;;
71648;SDS011;70112;45.624;11.760;2024-02-15T18:25:14;113.00;;;63.10;;
71648;SDS011;70112;45.624;11.760;2024-02-15T18:27:40;96.30;;;63.00;;
71648;SDS011;70112;45.624;11.760;2024-02-15T18:30:09;92.20;;;60.90;;
71648;SDS011;70112;45.624;11.760;2024-02-15T18:32:37;93.30;;;58.70;;
71648;SDS011;70112;45.624;11.760;2024-02-15T18:35:06;91.80;;;58.10;;
71648;SDS011;70112;45.624;11.760;2024-02-15T18:37:36;89.30;;;58.60;;
71648;SDS011;70112;45.624;11.760;2024-02-15T18:40:03;94.50;;;60.50;;
71648;SDS011;70112;45.624;11.760;2024-02-15T18:42:32;93.10;;;60.60;;
71648;SDS011;70112;45.624;11.760;2024-02-15T18:45:00;92.50;;;61.90;;
71648;SDS011;70112;45.624;11.760;2024-02-15T18:47:28;94.30;;;59.20;;
71648;SDS011;70112;45.624;11.760;2024-02-15T18:49:57;90.20;;;58.30;;
71648;SDS011;70112;45.624;11.760;2024-02-15T18:52:24;93.30;;;57.60;;
71648;SDS011;70112;45.624;11.760;2024-02-15T18:54:51;79.90;;;53.80;;
71648;SDS011;70112;45.624;11.760;2024-02-15T18:57:18;80.70;;;54.60;;
71648;SDS011;70112;45.624;11.760;2024-02-15T18:59:45;84.50;;;56.20;;
71648;SDS011;70112;45.624;11.760;2024-02-15T19:02:11;93.20;;;58.80;;
71648;SDS011;70112;45.624;11.760;2024-02-15T19:04:40;98.30;;;58.80;;
71648;SDS011;70112;45.624;11.760;2024-02-15T19:07:05;88.80;;;59.50;;
71648;SDS011;70112;45.624;11.760;2024-02-15T19:09:31;94.10;;;59.80;;
71648;SDS011;70112;45.624;11.760;2024-02-15T19:11:57;84.20;;;57.10;;
71648;SDS011;70112;45.624;11.760;2024-02-15T19:14:27;81.80;;;56.50;;
71648;SDS011;70112;45.624;11.760;2024-02-15T19:16:54;78.00;;;53.30;;
71648;SDS011;70112;45.624;11.760;2024-02-15T19:19:28;76.40;;;53.40;;
71648;SDS011;70112;45.624;11.760;2024-02-15T19:21:54;84.60;;;56.10;;
71648;SDS011;70112;45.624;11.760;2024-02-15T19:24:20;90.00;;;57.90;;
71648;SDS011;70112;45.624;11.760;2024-02-15T19:26:45;90.80;;;58.60;;
71648;SDS011;70112;45.624;11.760;2024-02-15T19:29:12;96.80;;;62.40;;
71648;SDS011;70112;45.624;11.760;2024-02-15T19:31:38;94.90;;;60.50;;
71648;SDS011;70112;45.624;11.760;2024-02-15T19:34:06;93.80;;;61.10;;
71648;SDS011;70112;45.624;11.760;2024-02-15T19:36:32;92.40;;;58.70;;
71648;SDS011;70112;45.624;11.760;2024-02-15T19:39:02;94.30;;;60.50;;
71648;SDS011;70112;45.624;11.760;2024-02-15T19:41:36;88.70;;;59.00;;
71648;SDS011;70112;45.624;11.760;2024-02-15T19:44:04;93.60;;;60.90;;
71648;SDS011;70112;45.624;11.760;2024-02-15T19:46:33;107.50;;;65.80;;
71648;SDS011;70112;45.624;11.760;2024-02-15T19:49:10;106.70;;;66.00;;
71648;SDS011;70112;45.624;11.760;2024-02-15T19:51:36;118.90;;;70.30;;